sensor_id;sensor_type;location;lat;lon;timestamp;temperature;humidity
7762;DHT22;3925;48.636;9.516;2023-07-20T00:00:06;20.10;94.60
7762;DHT22;3925;48.636;9.516;2023-07-20T00:02:33;20.10;95.00
7762;DHT22;3925;48.636;9.516;2023-07-20T00:05:01;20.10;94.60
7762;DHT22;3925;48.636;9.516;2023-07-20T00:07:28;20.20;95.10
7762;DHT22;3925;48.636;9.516;2023-07-20T00:09:55;20.20;94.80
7762;DHT22;3925;48.636;9.516;2023-07-20T00:12:22;20.20;94.20
7762;DHT22;3925;48.636;9.516;2023-07-20T00:14:49;20.20;94.60
7762;DHT22;3925;48.636;9.516;2023-07-20T00:17:19;20.00;94.50
7762;DHT22;3925;48.636;9.516;2023-07-20T00:19:46;20.00;93.60
7762;DHT22;3925;48.636;9.516;2023-07-20T00:22:15;20.00;92.90
7762;DHT22;3925;48.636;9.516;2023-07-20T00:24:41;20.10;92.20
7762;DHT22;3925;48.636;9.516;2023-07-20T00:27:08;20.00;92.10
7762;DHT22;3925;48.636;9.516;2023-07-20T00:29:35;20.00;91.40
7762;DHT22;3925;48.636;9.516;2023-07-20T00:32:02;19.90;91.60
7762;DHT22;3925;48.636;9.516;2023-07-20T00:34:30;19.90;91.60
7762;DHT22;3925;48.636;9.516;2023-07-20T00:36:57;19.90;91.50
7762;DHT22;3925;48.636;9.516;2023-07-20T00:39:26;19.80;91.70
7762;DHT22;3925;48.636;9.516;2023-07-20T00:41:52;19.80;91.90
7762;DHT22;3925;48.636;9.516;2023-07-20T00:44:19;19.90;91.70
7762;DHT22;3925;48.636;9.516;2023-07-20T00:46:46;19.90;91.50
7762;DHT22;3925;48.636;9.516;2023-07-20T00:49:13;19.90;91.10
7762;DHT22;3925;48.636;9.516;2023-07-20T00:51:41;20.00;91.20
7762;DHT22;3925;48.636;9.516;2023-07-20T00:54:08;20.00;90.90
7762;DHT22;3925;48.636;9.516;2023-07-20T00:56:36;20.00;91.00
7762;DHT22;3925;48.636;9.516;2023-07-20T00:59:04;20.00;90.60
7762;DHT22;3925;48.636;9.516;2023-07-20T01:01:31;19.90;91.10
7762;DHT22;3925;48.636;9.516;2023-07-20T01:03:58;19.90;91.50
7762;DHT22;3925;48.636;9.516;2023-07-20T01:06:29;19.80;91.90
7762;DHT22;3925;48.636;9.516;2023-07-20T01:09:07;19.70;91.70
7762;DHT22;3925;48.636;9.516;2023-07-20T01:11:41;19.60;92.60
7762;DHT22;3925;48.636;9.516;2023-07-20T01:14:10;19.70;93.00
7762;DHT22;3925;48.636;9.516;2023-07-20T01:16:38;19.70;93.10
7762;DHT22;3925;48.636;9.516;2023-07-20T01:19:05;19.70;94.10
7762;DHT22;3925;48.636;9.516;2023-07-20T01:21:40;19.50;93.60
7762;DHT22;3925;48.636;9.516;2023-07-20T01:24:32;19.40;94.10
7762;DHT22;3925;48.636;9.516;2023-07-20T01:30:18;19.40;94.30
7762;DHT22;3925;48.636;9.516;2023-07-20T01:32:50;19.30;93.80
7762;DHT22;3925;48.636;9.516;2023-07-20T01:35:21;19.30;93.70
7762;DHT22;3925;48.636;9.516;2023-07-20T01:37:49;19.30;93.30
7762;DHT22;3925;48.636;9.516;2023-07-20T01:40:17;19.30;93.00
7762;DHT22;3925;48.636;9.516;2023-07-20T01:42:45;19.30;93.10
7762;DHT22;3925;48.636;9.516;2023-07-20T01:45:12;19.20;92.90
7762;DHT22;3925;48.636;9.516;2023-07-20T01:47:40;19.10;92.60
7762;DHT22;3925;48.636;9.516;2023-07-20T01:50:09;19.00;92.80
7762;DHT22;3925;48.636;9.516;2023-07-20T01:52:36;18.90;92.60
7762;DHT22;3925;48.636;9.516;2023-07-20T01:55:04;18.90;93.50
7762;DHT22;3925;48.636;9.516;2023-07-20T01:57:31;18.90;93.10
7762;DHT22;3925;48.636;9.516;2023-07-20T01:59:58;18.90;93.00
7762;DHT22;3925;48.636;9.516;2023-07-20T02:02:27;18.90;92.70
7762;DHT22;3925;48.636;9.516;2023-07-20T02:04:54;18.90;93.30
7762;DHT22;3925;48.636;9.516;2023-07-20T02:07:22;18.80;93.60
7762;DHT22;3925;48.636;9.516;2023-07-20T02:09:49;18.90;93.20
7762;DHT22;3925;48.636;9.516;2023-07-20T02:12:16;18.90;93.30
7762;DHT22;3925;48.636;9.516;2023-07-20T02:14:42;18.90;93.90
7762;DHT22;3925;48.636;9.516;2023-07-20T02:17:09;18.80;94.00
7762;DHT22;3925;48.636;9.516;2023-07-20T02:19:37;18.70;93.70
7762;DHT22;3925;48.636;9.516;2023-07-20T02:22:04;18.70;94.30
7762;DHT22;3925;48.636;9.516;2023-07-20T02:24:33;18.70;94.70
7762;DHT22;3925;48.636;9.516;2023-07-20T02:27:00;18.70;94.40
7762;DHT22;3925;48.636;9.516;2023-07-20T02:29:27;18.70;94.50
7762;DHT22;3925;48.636;9.516;2023-07-20T02:31:54;18.70;94.10
7762;DHT22;3925;48.636;9.516;2023-07-20T02:34:21;18.70;95.10
7762;DHT22;3925;48.636;9.516;2023-07-20T02:36:47;18.70;94.20
7762;DHT22;3925;48.636;9.516;2023-07-20T02:39:14;18.70;94.70
7762;DHT22;3925;48.636;9.516;2023-07-20T02:41:43;18.70;95.00
7762;DHT22;3925;48.636;9.516;2023-07-20T02:44:09;18.70;95.00
7762;DHT22;3925;48.636;9.516;2023-07-20T02:46:36;18.70;95.00
7762;DHT22;3925;48.636;9.516;2023-07-20T02:49:03;18.80;95.40
7762;DHT22;3925;48.636;9.516;2023-07-20T02:51:30;18.80;94.60
7762;DHT22;3925;48.636;9.516;2023-07-20T02:53:58;18.70;95.00
7762;DHT22;3925;48.636;9.516;2023-07-20T02:56:26;18.80;95.00
7762;DHT22;3925;48.636;9.516;2023-07-20T02:58:54;18.80;95.00
7762;DHT22;3925;48.636;9.516;2023-07-20T03:01:21;18.80;94.60
7762;DHT22;3925;48.636;9.516;2023-07-20T03:03:48;18.80;95.10
7762;DHT22;3925;48.636;9.516;2023-07-20T03:06:15;18.80;95.00
7762;DHT22;3925;48.636;9.516;2023-07-20T03:08:43;18.70;95.30
7762;DHT22;3925;48.636;9.516;2023-07-20T03:11:12;18.60;95.30
7762;DHT22;3925;48.636;9.516;2023-07-20T03:13:39;18.60;95.40
7762;DHT22;3925;48.636;9.516;2023-07-20T03:16:08;18.50;95.60
7762;DHT22;3925;48.636;9.516;2023-07-20T03:18:37;18.50;95.20
7762;DHT22;3925;48.636;9.516;2023-07-20T03:21:04;18.40;95.60
7762;DHT22;3925;48.636;9.516;2023-07-20T03:23:31;18.40;95.90
7762;DHT22;3925;48.636;9.516;2023-07-20T03:25:58;18.40;95.80
7762;DHT22;3925;48.636;9.516;2023-07-20T03:28:25;18.30;96.80
7762;DHT22;3925;48.636;9.516;2023-07-20T03:30:53;18.20;96.20
7762;DHT22;3925;48.636;9.516;2023-07-20T03:33:22;18.10;96.90
7762;DHT22;3925;48.636;9.516;2023-07-20T03:35:49;18.10;97.30
7762;DHT22;3925;48.636;9.516;2023-07-20T03:38:16;17.90;97.00
7762;DHT22;3925;48.636;9.516;2023-07-20T03:40:49;17.80;97.20
7762;DHT22;3925;48.636;9.516;2023-07-20T03:43:16;17.80;97.20
7762;DHT22;3925;48.636;9.516;2023-07-20T03:45:43;17.70;98.30
7762;DHT22;3925;48.636;9.516;2023-07-20T03:48:11;17.50;98.90
7762;DHT22;3925;48.636;9.516;2023-07-20T03:50:39;17.50;99.60
7762;DHT22;3925;48.636;9.516;2023-07-20T03:53:06;17.50;99.80
7762;DHT22;3925;48.636;9.516;2023-07-20T03:55:33;17.40;99.90
7762;DHT22;3925;48.636;9.516;2023-07-20T03:58:00;17.40;99.90
7762;DHT22;3925;48.636;9.516;2023-07-20T04:00:27;17.40;99.90
7762;DHT22;3925;48.636;9.516;2023-07-20T04:02:54;17.40;99.90
7762;DHT22;3925;48.636;9.516;2023-07-20T04:05:21;17.40;99.90
7762;DHT22;3925;48.636;9.516;2023-07-20T04:07:49;17.40;99.90
7762;DHT22;3925;48.636;9.516;2023-07-20T04:10:17;17.50;99.90
7762;DHT22;3925;48.636;9.516;2023-07-20T04:12:44;17.50;99.90
7762;DHT22;3925;48.636;9.516;2023-07-20T04:15:12;17.60;99.90
7762;DHT22;3925;48.636;9.516;2023-07-20T04:17:39;17.70;99.70
7762;DHT22;3925;48.636;9.516;2023-07-20T04:20:07;17.70;99.90
7762;DHT22;3925;48.636;9.516;2023-07-20T04:22:34;17.70;99.90
7762;DHT22;3925;48.636;9.516;2023-07-20T04:25:04;17.80;99.90
7762;DHT22;3925;48.636;9.516;2023-07-20T04:27:31;17.80;99.90
7762;DHT22;3925;48.636;9.516;2023-07-20T04:29:58;17.90;99.90
7762;DHT22;3925;48.636;9.516;2023-07-20T04:32:26;18.00;99.90
7762;DHT22;3925;48.636;9.516;2023-07-20T04:34:53;18.10;99.90
7762;DHT22;3925;48.636;9.516;2023-07-20T04:37:20;18.20;99.90
7762;DHT22;3925;48.636;9.516;2023-07-20T04:39:46;18.30;99.90
7762;DHT22;3925;48.636;9.516;2023-07-20T04:42:15;18.40;99.40
7762;DHT22;3925;48.636;9.516;2023-07-20T04:44:42;18.50;99.70
7762;DHT22;3925;48.636;9.516;2023-07-20T04:47:09;18.60;99.90
7762;DHT22;3925;48.636;9.516;2023-07-20T04:49:36;18.70;99.80
7762;DHT22;3925;48.636;9.516;2023-07-20T04:52:03;18.80;99.10
7762;DHT22;3925;48.636;9.516;2023-07-20T04:54:30;19.00;98.20
7762;DHT22;3925;48.636;9.516;2023-07-20T04:56:57;19.10;98.90
7762;DHT22;3925;48.636;9.516;2023-07-20T04:59:25;19.10;98.70
7762;DHT22;3925;48.636;9.516;2023-07-20T05:01:52;19.40;98.20
7762;DHT22;3925;48.636;9.516;2023-07-20T05:04:19;19.40;97.40
7762;DHT22;3925;48.636;9.516;2023-07-20T05:06:45;19.80;97.60
7762;DHT22;3925;48.636;9.516;2023-07-20T05:09:12;20.00;97.20
7762;DHT22;3925;48.636;9.516;2023-07-20T05:11:39;20.10;96.40
7762;DHT22;3925;48.636;9.516;2023-07-20T05:14:08;20.20;95.80
7762;DHT22;3925;48.636;9.516;2023-07-20T05:16:36;20.20;96.60
7762;DHT22;3925;48.636;9.516;2023-07-20T05:19:03;20.30;96.50
7762;DHT22;3925;48.636;9.516;2023-07-20T05:21:30;20.40;97.00
7762;DHT22;3925;48.636;9.516;2023-07-20T05:23:57;20.60;96.50
7762;DHT22;3925;48.636;9.516;2023-07-20T05:26:24;20.80;95.50
7762;DHT22;3925;48.636;9.516;2023-07-20T05:28:51;21.00;95.60
7762;DHT22;3925;48.636;9.516;2023-07-20T05:31:17;21.20;95.40
7762;DHT22;3925;48.636;9.516;2023-07-20T05:33:46;21.50;94.90
7762;DHT22;3925;48.636;9.516;2023-07-20T05:36:12;21.80;94.90
7762;DHT22;3925;48.636;9.516;2023-07-20T05:38:39;22.70;93.70
7762;DHT22;3925;48.636;9.516;2023-07-20T05:41:06;23.70;91.80
7762;DHT22;3925;48.636;9.516;2023-07-20T05:43:35;23.70;90.10
7762;DHT22;3925;48.636;9.516;2023-07-20T05:46:02;23.70;89.20
7762;DHT22;3925;48.636;9.516;2023-07-20T05:48:30;22.80;88.30
7762;DHT22;3925;48.636;9.516;2023-07-20T05:50:59;23.10;91.10
7762;DHT22;3925;48.636;9.516;2023-07-20T05:53:26;23.30;91.10
7762;DHT22;3925;48.636;9.516;2023-07-20T05:55:53;23.60;88.80
7762;DHT22;3925;48.636;9.516;2023-07-20T05:58:20;24.20;89.10
7762;DHT22;3925;48.636;9.516;2023-07-20T06:00:48;24.80;84.20
7762;DHT22;3925;48.636;9.516;2023-07-20T06:03:16;24.70;85.10
7762;DHT22;3925;48.636;9.516;2023-07-20T06:05:43;24.60;84.70
7762;DHT22;3925;48.636;9.516;2023-07-20T06:08:11;24.50;82.70
7762;DHT22;3925;48.636;9.516;2023-07-20T06:10:38;24.20;85.00
7762;DHT22;3925;48.636;9.516;2023-07-20T06:13:05;24.30;84.00
7762;DHT22;3925;48.636;9.516;2023-07-20T06:15:33;24.50;85.90
7762;DHT22;3925;48.636;9.516;2023-07-20T06:18:01;24.20;84.40
7762;DHT22;3925;48.636;9.516;2023-07-20T06:20:29;24.30;84.90
7762;DHT22;3925;48.636;9.516;2023-07-20T06:22:56;23.90;85.00
7762;DHT22;3925;48.636;9.516;2023-07-20T06:25:24;24.10;83.00
7762;DHT22;3925;48.636;9.516;2023-07-20T06:27:51;24.20;83.50
7762;DHT22;3925;48.636;9.516;2023-07-20T06:30:19;24.30;84.10
7762;DHT22;3925;48.636;9.516;2023-07-20T06:32:46;24.70;85.90
7762;DHT22;3925;48.636;9.516;2023-07-20T06:35:13;24.90;82.30
7762;DHT22;3925;48.636;9.516;2023-07-20T06:37:40;25.10;84.00
7762;DHT22;3925;48.636;9.516;2023-07-20T06:40:08;25.40;80.90
7762;DHT22;3925;48.636;9.516;2023-07-20T06:42:36;25.90;79.10
7762;DHT22;3925;48.636;9.516;2023-07-20T06:45:04;26.20;74.40
7762;DHT22;3925;48.636;9.516;2023-07-20T06:47:31;26.80;72.90
7762;DHT22;3925;48.636;9.516;2023-07-20T06:49:58;27.20;72.00
7762;DHT22;3925;48.636;9.516;2023-07-20T06:52:24;27.40;68.90
7762;DHT22;3925;48.636;9.516;2023-07-20T06:54:51;28.20;67.90
7762;DHT22;3925;48.636;9.516;2023-07-20T06:57:18;29.90;59.80
7762;DHT22;3925;48.636;9.516;2023-07-20T06:59:47;30.20;57.40
7762;DHT22;3925;48.636;9.516;2023-07-20T07:02:14;30.50;58.10
7762;DHT22;3925;48.636;9.516;2023-07-20T07:04:41;30.40;54.50
7762;DHT22;3925;48.636;9.516;2023-07-20T07:07:08;29.80;55.90
7762;DHT22;3925;48.636;9.516;2023-07-20T07:09:35;30.40;53.90
7762;DHT22;3925;48.636;9.516;2023-07-20T07:12:02;32.00;52.40
7762;DHT22;3925;48.636;9.516;2023-07-20T07:14:28;32.90;48.20
7762;DHT22;3925;48.636;9.516;2023-07-20T07:16:57;33.90;46.80
7762;DHT22;3925;48.636;9.516;2023-07-20T07:19:23;36.10;44.30
7762;DHT22;3925;48.636;9.516;2023-07-20T07:21:50;38.50;39.20
7762;DHT22;3925;48.636;9.516;2023-07-20T07:24:17;40.40;35.50
7762;DHT22;3925;48.636;9.516;2023-07-20T07:26:44;42.20;31.90
7762;DHT22;3925;48.636;9.516;2023-07-20T07:29:11;41.80;31.90
7762;DHT22;3925;48.636;9.516;2023-07-20T07:31:39;40.20;30.90
7762;DHT22;3925;48.636;9.516;2023-07-20T07:34:07;41.60;30.40
7762;DHT22;3925;48.636;9.516;2023-07-20T07:36:34;41.80;29.60
7762;DHT22;3925;48.636;9.516;2023-07-20T07:39:01;40.30;30.80
7762;DHT22;3925;48.636;9.516;2023-07-20T07:41:28;42.10;29.20
7762;DHT22;3925;48.636;9.516;2023-07-20T07:43:55;42.70;28.50
7762;DHT22;3925;48.636;9.516;2023-07-20T07:46:22;40.10;29.50
7762;DHT22;3925;48.636;9.516;2023-07-20T07:48:49;40.70;29.90
7762;DHT22;3925;48.636;9.516;2023-07-20T07:51:17;39.70;30.40
7762;DHT22;3925;48.636;9.516;2023-07-20T07:53:45;37.60;32.70
7762;DHT22;3925;48.636;9.516;2023-07-20T07:56:12;36.60;33.10
7762;DHT22;3925;48.636;9.516;2023-07-20T07:58:39;38.20;32.70
7762;DHT22;3925;48.636;9.516;2023-07-20T08:01:06;39.20;30.20
7762;DHT22;3925;48.636;9.516;2023-07-20T08:03:33;39.40;31.50
7762;DHT22;3925;48.636;9.516;2023-07-20T08:06:02;40.20;30.10
7762;DHT22;3925;48.636;9.516;2023-07-20T08:08:31;37.70;32.50
7762;DHT22;3925;48.636;9.516;2023-07-20T08:10:58;38.90;31.90
7762;DHT22;3925;48.636;9.516;2023-07-20T08:13:25;39.40;32.30
7762;DHT22;3925;48.636;9.516;2023-07-20T08:15:53;40.80;30.40
7762;DHT22;3925;48.636;9.516;2023-07-20T08:18:20;41.50;29.70
7762;DHT22;3925;48.636;9.516;2023-07-20T08:20:47;43.20;27.30
7762;DHT22;3925;48.636;9.516;2023-07-20T08:23:15;42.20;27.10
7762;DHT22;3925;48.636;9.516;2023-07-20T08:25:43;41.40;28.20
7762;DHT22;3925;48.636;9.516;2023-07-20T08:28:10;41.00;28.70
7762;DHT22;3925;48.636;9.516;2023-07-20T08:30:41;40.80;29.00
7762;DHT22;3925;48.636;9.516;2023-07-20T08:33:09;41.30;28.20
7762;DHT22;3925;48.636;9.516;2023-07-20T08:35:36;42.40;27.30
7762;DHT22;3925;48.636;9.516;2023-07-20T08:38:03;41.20;26.40
7762;DHT22;3925;48.636;9.516;2023-07-20T08:40:31;40.90;28.50
7762;DHT22;3925;48.636;9.516;2023-07-20T08:43:00;41.00;27.70
7762;DHT22;3925;48.636;9.516;2023-07-20T08:45:28;41.00;27.40
7762;DHT22;3925;48.636;9.516;2023-07-20T08:47:56;40.10;28.60
7762;DHT22;3925;48.636;9.516;2023-07-20T08:50:25;40.40;28.30
7762;DHT22;3925;48.636;9.516;2023-07-20T08:52:54;39.80;29.00
7762;DHT22;3925;48.636;9.516;2023-07-20T08:55:23;40.20;28.60
7762;DHT22;3925;48.636;9.516;2023-07-20T08:57:51;41.80;27.10
7762;DHT22;3925;48.636;9.516;2023-07-20T09:00:21;41.70;27.10
7762;DHT22;3925;48.636;9.516;2023-07-20T09:02:50;41.70;26.90
7762;DHT22;3925;48.636;9.516;2023-07-20T09:05:17;42.00;26.90
7762;DHT22;3925;48.636;9.516;2023-07-20T09:07:44;39.60;28.60
7762;DHT22;3925;48.636;9.516;2023-07-20T09:10:11;39.70;28.90
7762;DHT22;3925;48.636;9.516;2023-07-20T09:12:39;37.60;31.30
7762;DHT22;3925;48.636;9.516;2023-07-20T09:15:07;39.90;29.60
7762;DHT22;3925;48.636;9.516;2023-07-20T09:17:36;41.20;27.60
7762;DHT22;3925;48.636;9.516;2023-07-20T09:20:04;41.80;26.30
7762;DHT22;3925;48.636;9.516;2023-07-20T09:22:34;40.30;26.90
7762;DHT22;3925;48.636;9.516;2023-07-20T09:25:01;40.90;27.40
7762;DHT22;3925;48.636;9.516;2023-07-20T09:27:35;41.00;28.10
7762;DHT22;3925;48.636;9.516;2023-07-20T09:30:04;41.80;26.20
7762;DHT22;3925;48.636;9.516;2023-07-20T09:32:40;42.90;26.00
7762;DHT22;3925;48.636;9.516;2023-07-20T09:35:13;41.40;26.20
7762;DHT22;3925;48.636;9.516;2023-07-20T09:37:41;42.20;26.80
7762;DHT22;3925;48.636;9.516;2023-07-20T09:40:09;43.10;24.60
7762;DHT22;3925;48.636;9.516;2023-07-20T09:42:36;43.00;24.00
7762;DHT22;3925;48.636;9.516;2023-07-20T09:45:07;41.00;25.10
7762;DHT22;3925;48.636;9.516;2023-07-20T09:47:36;41.00;26.00
7762;DHT22;3925;48.636;9.516;2023-07-20T09:50:06;42.40;25.40
7762;DHT22;3925;48.636;9.516;2023-07-20T09:52:38;42.30;25.00
7762;DHT22;3925;48.636;9.516;2023-07-20T09:55:07;39.10;28.30
7762;DHT22;3925;48.636;9.516;2023-07-20T09:57:34;39.60;27.80
7762;DHT22;3925;48.636;9.516;2023-07-20T10:00:01;38.50;28.90
7762;DHT22;3925;48.636;9.516;2023-07-20T10:02:33;37.70;29.20
7762;DHT22;3925;48.636;9.516;2023-07-20T10:05:02;36.60;30.20
7762;DHT22;3925;48.636;9.516;2023-07-20T10:07:31;34.80;31.90
7762;DHT22;3925;48.636;9.516;2023-07-20T10:10:00;32.30;35.40
7762;DHT22;3925;48.636;9.516;2023-07-20T10:12:31;33.00;36.90
7762;DHT22;3925;48.636;9.516;2023-07-20T10:15:06;32.60;38.10
7762;DHT22;3925;48.636;9.516;2023-07-20T10:17:38;34.50;35.90
7762;DHT22;3925;48.636;9.516;2023-07-20T10:20:08;36.30;32.20
7762;DHT22;3925;48.636;9.516;2023-07-20T10:22:37;37.80;31.90
7762;DHT22;3925;48.636;9.516;2023-07-20T10:25:05;37.80;30.40
7762;DHT22;3925;48.636;9.516;2023-07-20T10:27:34;39.50;28.40
7762;DHT22;3925;48.636;9.516;2023-07-20T10:30:01;40.90;27.60
7762;DHT22;3925;48.636;9.516;2023-07-20T10:32:30;40.90;26.10
7762;DHT22;3925;48.636;9.516;2023-07-20T10:34:57;41.20;27.10
7762;DHT22;3925;48.636;9.516;2023-07-20T10:37:50;40.60;26.90
7762;DHT22;3925;48.636;9.516;2023-07-20T10:40:28;39.30;27.30
7762;DHT22;3925;48.636;9.516;2023-07-20T10:42:57;36.20;29.80
7762;DHT22;3925;48.636;9.516;2023-07-20T10:45:42;35.70;30.90
7762;DHT22;3925;48.636;9.516;2023-07-20T10:48:17;33.50;32.30
7762;DHT22;3925;48.636;9.516;2023-07-20T10:50:45;33.30;34.40
7762;DHT22;3925;48.636;9.516;2023-07-20T10:53:16;33.00;34.20
7762;DHT22;3925;48.636;9.516;2023-07-20T10:55:44;32.50;36.00
7762;DHT22;3925;48.636;9.516;2023-07-20T10:58:13;31.90;36.80
7762;DHT22;3925;48.636;9.516;2023-07-20T11:01:01;31.40;38.30
7762;DHT22;3925;48.636;9.516;2023-07-20T11:03:30;30.80;39.20
7762;DHT22;3925;48.636;9.516;2023-07-20T11:05:58;30.70;41.20
7762;DHT22;3925;48.636;9.516;2023-07-20T11:08:44;31.50;38.60
7762;DHT22;3925;48.636;9.516;2023-07-20T11:11:24;31.00;40.30
7762;DHT22;3925;48.636;9.516;2023-07-20T11:13:56;30.40;39.70
7762;DHT22;3925;48.636;9.516;2023-07-20T11:16:40;30.10;40.80
7762;DHT22;3925;48.636;9.516;2023-07-20T11:19:16;29.70;41.50
7762;DHT22;3925;48.636;9.516;2023-07-20T11:21:44;29.20;42.00
7762;DHT22;3925;48.636;9.516;2023-07-20T11:24:13;29.30;44.30
7762;DHT22;3925;48.636;9.516;2023-07-20T11:26:41;29.20;42.20
7762;DHT22;3925;48.636;9.516;2023-07-20T11:29:08;29.10;41.40
7762;DHT22;3925;48.636;9.516;2023-07-20T11:31:37;29.20;42.00
7762;DHT22;3925;48.636;9.516;2023-07-20T11:34:04;29.60;42.00
7762;DHT22;3925;48.636;9.516;2023-07-20T11:36:31;29.40;40.10
7762;DHT22;3925;48.636;9.516;2023-07-20T11:38:58;29.20;40.10
7762;DHT22;3925;48.636;9.516;2023-07-20T11:41:27;29.30;40.00
7762;DHT22;3925;48.636;9.516;2023-07-20T11:43:54;29.60;38.70
7762;DHT22;3925;48.636;9.516;2023-07-20T11:46:22;29.70;37.80
7762;DHT22;3925;48.636;9.516;2023-07-20T11:48:48;29.80;39.50
7762;DHT22;3925;48.636;9.516;2023-07-20T11:51:16;29.60;41.50
7762;DHT22;3925;48.636;9.516;2023-07-20T11:53:44;29.70;40.90
7762;DHT22;3925;48.636;9.516;2023-07-20T11:56:11;29.50;40.60
7762;DHT22;3925;48.636;9.516;2023-07-20T11:58:44;29.80;40.10
7762;DHT22;3925;48.636;9.516;2023-07-20T12:01:12;30.00;40.80
7762;DHT22;3925;48.636;9.516;2023-07-20T12:03:39;30.50;41.60
7762;DHT22;3925;48.636;9.516;2023-07-20T12:06:06;31.00;41.30
7762;DHT22;3925;48.636;9.516;2023-07-20T12:08:34;30.50;41.10
7762;DHT22;3925;48.636;9.516;2023-07-20T12:11:01;31.00;40.20
7762;DHT22;3925;48.636;9.516;2023-07-20T12:13:36;30.70;39.30
7762;DHT22;3925;48.636;9.516;2023-07-20T12:16:09;31.00;38.10
7762;DHT22;3925;48.636;9.516;2023-07-20T12:18:37;30.30;37.50
7762;DHT22;3925;48.636;9.516;2023-07-20T12:21:06;29.80;39.30
7762;DHT22;3925;48.636;9.516;2023-07-20T12:23:37;29.80;40.00
7762;DHT22;3925;48.636;9.516;2023-07-20T12:26:07;29.70;41.30
7762;DHT22;3925;48.636;9.516;2023-07-20T12:28:38;29.90;38.70
7762;DHT22;3925;48.636;9.516;2023-07-20T12:31:08;30.00;38.60
7762;DHT22;3925;48.636;9.516;2023-07-20T12:33:35;30.10;37.50
7762;DHT22;3925;48.636;9.516;2023-07-20T12:36:02;30.10;38.90
7762;DHT22;3925;48.636;9.516;2023-07-20T12:38:29;29.90;40.10
7762;DHT22;3925;48.636;9.516;2023-07-20T12:40:57;29.50;39.10
7762;DHT22;3925;48.636;9.516;2023-07-20T12:43:26;29.70;39.50
7762;DHT22;3925;48.636;9.516;2023-07-20T12:45:53;29.90;38.90
7762;DHT22;3925;48.636;9.516;2023-07-20T12:48:22;29.50;37.40
7762;DHT22;3925;48.636;9.516;2023-07-20T12:50:49;28.90;39.50
7762;DHT22;3925;48.636;9.516;2023-07-20T12:53:16;29.20;39.50
7762;DHT22;3925;48.636;9.516;2023-07-20T12:55:44;28.80;40.30
7762;DHT22;3925;48.636;9.516;2023-07-20T12:58:12;29.20;42.10
7762;DHT22;3925;48.636;9.516;2023-07-20T13:00:39;29.60;41.70
7762;DHT22;3925;48.636;9.516;2023-07-20T13:03:06;30.00;39.30
7762;DHT22;3925;48.636;9.516;2023-07-20T13:05:35;30.00;40.40
7762;DHT22;3925;48.636;9.516;2023-07-20T13:08:02;30.60;38.50
7762;DHT22;3925;48.636;9.516;2023-07-20T13:10:31;30.70;37.90
7762;DHT22;3925;48.636;9.516;2023-07-20T13:12:57;30.90;38.70
7762;DHT22;3925;48.636;9.516;2023-07-20T13:15:29;30.80;39.20
7762;DHT22;3925;48.636;9.516;2023-07-20T13:17:57;30.40;38.00
7762;DHT22;3925;48.636;9.516;2023-07-20T13:20:24;30.10;39.40
7762;DHT22;3925;48.636;9.516;2023-07-20T13:22:53;29.90;38.50
7762;DHT22;3925;48.636;9.516;2023-07-20T13:25:20;29.70;38.80
7762;DHT22;3925;48.636;9.516;2023-07-20T13:27:47;29.80;39.10
7762;DHT22;3925;48.636;9.516;2023-07-20T13:30:14;29.70;38.00
7762;DHT22;3925;48.636;9.516;2023-07-20T13:32:42;28.80;40.90
7762;DHT22;3925;48.636;9.516;2023-07-20T13:35:09;28.80;39.00
7762;DHT22;3925;48.636;9.516;2023-07-20T13:37:36;28.90;39.40
7762;DHT22;3925;48.636;9.516;2023-07-20T13:40:06;28.80;42.00
7762;DHT22;3925;48.636;9.516;2023-07-20T13:42:34;29.00;40.30
7762;DHT22;3925;48.636;9.516;2023-07-20T13:45:01;28.20;39.40
7762;DHT22;3925;48.636;9.516;2023-07-20T13:47:28;27.80;39.10
7762;DHT22;3925;48.636;9.516;2023-07-20T13:49:55;28.10;42.70
7762;DHT22;3925;48.636;9.516;2023-07-20T13:52:22;28.10;41.50
7762;DHT22;3925;48.636;9.516;2023-07-20T13:54:49;28.30;42.50
7762;DHT22;3925;48.636;9.516;2023-07-20T13:57:17;28.60;40.50
7762;DHT22;3925;48.636;9.516;2023-07-20T13:59:44;28.60;41.60
7762;DHT22;3925;48.636;9.516;2023-07-20T14:02:13;28.70;40.80
7762;DHT22;3925;48.636;9.516;2023-07-20T14:04:40;28.80;40.00
7762;DHT22;3925;48.636;9.516;2023-07-20T14:07:07;28.90;39.60
7762;DHT22;3925;48.636;9.516;2023-07-20T14:09:34;28.90;38.00
7762;DHT22;3925;48.636;9.516;2023-07-20T14:12:01;28.40;40.30
7762;DHT22;3925;48.636;9.516;2023-07-20T14:14:29;27.80;39.20
7762;DHT22;3925;48.636;9.516;2023-07-20T14:16:56;28.00;41.00
7762;DHT22;3925;48.636;9.516;2023-07-20T14:19:23;27.70;40.90
7762;DHT22;3925;48.636;9.516;2023-07-20T14:21:50;27.80;42.40
7762;DHT22;3925;48.636;9.516;2023-07-20T14:24:17;27.40;40.50
7762;DHT22;3925;48.636;9.516;2023-07-20T14:26:44;27.30;42.10
7762;DHT22;3925;48.636;9.516;2023-07-20T14:29:11;27.40;42.10
7762;DHT22;3925;48.636;9.516;2023-07-20T14:31:40;27.60;42.40
7762;DHT22;3925;48.636;9.516;2023-07-20T14:34:06;27.70;41.50
7762;DHT22;3925;48.636;9.516;2023-07-20T14:36:33;27.80;41.80
7762;DHT22;3925;48.636;9.516;2023-07-20T14:39:00;27.80;41.40
7762;DHT22;3925;48.636;9.516;2023-07-20T14:41:27;27.60;40.80
7762;DHT22;3925;48.636;9.516;2023-07-20T14:43:54;27.70;41.30
7762;DHT22;3925;48.636;9.516;2023-07-20T14:46:21;27.60;40.50
7762;DHT22;3925;48.636;9.516;2023-07-20T14:48:49;26.90;41.70
7762;DHT22;3925;48.636;9.516;2023-07-20T14:51:17;26.30;41.70
7762;DHT22;3925;48.636;9.516;2023-07-20T14:53:44;26.30;42.30
7762;DHT22;3925;48.636;9.516;2023-07-20T14:56:11;26.10;43.60
7762;DHT22;3925;48.636;9.516;2023-07-20T14:58:37;26.40;43.60
7762;DHT22;3925;48.636;9.516;2023-07-20T15:01:04;26.50;42.50
7762;DHT22;3925;48.636;9.516;2023-07-20T15:03:31;26.00;42.50
7762;DHT22;3925;48.636;9.516;2023-07-20T15:06:00;26.00;44.00
7762;DHT22;3925;48.636;9.516;2023-07-20T15:08:27;26.30;44.50
7762;DHT22;3925;48.636;9.516;2023-07-20T15:10:54;26.30;45.30
7762;DHT22;3925;48.636;9.516;2023-07-20T15:13:21;26.50;44.00
7762;DHT22;3925;48.636;9.516;2023-07-20T15:15:49;26.70;44.70
7762;DHT22;3925;48.636;9.516;2023-07-20T15:18:16;26.90;44.00
7762;DHT22;3925;48.636;9.516;2023-07-20T15:20:42;26.90;45.40
7762;DHT22;3925;48.636;9.516;2023-07-20T15:23:11;26.90;42.70
7762;DHT22;3925;48.636;9.516;2023-07-20T15:25:37;27.00;43.00
7762;DHT22;3925;48.636;9.516;2023-07-20T15:28:04;26.80;40.10
7762;DHT22;3925;48.636;9.516;2023-07-20T15:30:31;26.50;43.00
7762;DHT22;3925;48.636;9.516;2023-07-20T15:32:58;26.50;43.50
7762;DHT22;3925;48.636;9.516;2023-07-20T15:35:25;26.30;44.40
7762;DHT22;3925;48.636;9.516;2023-07-20T15:37:52;26.50;44.10
7762;DHT22;3925;48.636;9.516;2023-07-20T15:40:20;26.60;43.10
7762;DHT22;3925;48.636;9.516;2023-07-20T15:42:48;26.70;43.50
7762;DHT22;3925;48.636;9.516;2023-07-20T15:45:14;26.70;43.80
7762;DHT22;3925;48.636;9.516;2023-07-20T15:47:41;26.70;43.40
7762;DHT22;3925;48.636;9.516;2023-07-20T15:50:09;26.70;43.00
7762;DHT22;3925;48.636;9.516;2023-07-20T15:52:36;26.80;41.80
7762;DHT22;3925;48.636;9.516;2023-07-20T15:55:03;26.70;43.30
7762;DHT22;3925;48.636;9.516;2023-07-20T15:57:32;26.70;44.20
7762;DHT22;3925;48.636;9.516;2023-07-20T15:59:59;26.70;41.90
7762;DHT22;3925;48.636;9.516;2023-07-20T16:02:26;26.70;42.30
7762;DHT22;3925;48.636;9.516;2023-07-20T16:04:53;26.70;42.90
7762;DHT22;3925;48.636;9.516;2023-07-20T16:07:20;26.70;43.00
7762;DHT22;3925;48.636;9.516;2023-07-20T16:09:47;26.70;42.20